Time;durP1;ratioP1;P1;durP2;ratioP2;P2;SDS_P1;SDS_P2;PMS_P1;PMS_P2;Temp;Humidity;BMP_temperature;BMP_pressure;BME280_temperature;BME280_humidity;BME280_pressure;Samples;Min_cycle;Max_cycle;Signal;HPM_P1;HPM_P2
2022/05/28 00:01:12;;;;;;;;;;;;;;;26.73;32.19;100504.94;5078208;28;982;-46
2022/05/28 00:03:37;;;;;;;;;;;;;;;27.30;31.05;100500.91;5078331;28;810;-48
2022/05/28 00:06:03;;;;;;;;;;;;;;;26.49;30.48;100500.69;5078038;28;808;-48
2022/05/28 00:08:28;;;;;;;;;;;;;;;25.65;33.77;100495.97;5077971;28;967;-48
2022/05/28 00:10:55;;;;;;;;;;;;;;;26.20;32.72;100496.88;5078524;28;888;-46
2022/05/28 00:13:20;;;;;;;;;;;;;;;26.67;31.90;100489.53;5078074;28;904;-46
2022/05/28 00:15:45;;;;;;;;;;;;;;;26.86;31.45;100490.81;5077433;28;793;-47
2022/05/28 00:18:10;;;;;;;;;;;;;;;27.34;30.47;100492.22;5078329;28;809;-48
2022/05/28 00:20:36;;;;;;;;;;;;;;;27.16;30.93;100489.94;5077719;28;856;-46
2022/05/28 00:23:02;;;;;;;;;;;;;;;27.35;30.78;100483.09;5078026;28;841;-47
2022/05/28 00:25:28;;;;;;;;;;;;;;;25.76;34.09;100481.25;5078078;28;809;-45
2022/05/28 00:27:54;;;;;;;;;;;;;;;25.88;32.89;100475.41;5077673;28;1268;-49
2022/05/28 00:30:19;;;;;;;;;;;;;;;26.23;32.99;100470.38;5077612;28;835;-46
2022/05/28 00:32:44;;;;;;;;;;;;;;;26.92;31.04;100464.94;5077320;28;1965;-46
2022/05/28 00:35:11;;;;;;;;;;;;;;;26.79;30.94;100462.91;5077476;28;888;-46
2022/05/28 00:37:37;;;;;;;;;;;;;;;27.17;30.85;100461.94;5077744;28;853;-47
2022/05/28 00:40:03;;;;;;;;;;;;;;;27.24;30.65;100462.81;5077683;28;853;-45
2022/05/28 00:42:29;;;;;;;;;;;;;;;27.05;31.12;100460.75;5078193;28;757;-47
2022/05/28 00:44:54;;;;;;;;;;;;;;;25.81;33.77;100451.06;5076932;28;980;-46
2022/05/28 00:47:20;;;;;;;;;;;;;;;26.16;32.36;100453.25;5076730;28;979;-46
2022/05/28 00:49:45;;;;;;;;;;;;;;;26.55;31.54;100448.69;5077872;28;799;-44
2022/05/28 00:52:10;;;;;;;;;;;;;;;26.95;31.31;100447.50;5059131;28;1914;-45
2022/05/28 00:54:40;;;;;;;;;;;;;;;27.06;30.94;100440.84;5058377;28;936;-44
2022/05/28 00:57:06;;;;;;;;;;;;;;;27.00;31.06;100436.97;5052313;28;865;-47
2022/05/28 00:59:31;;;;;;;;;;;;;;;27.52;30.19;100439.63;5059090;28;1100;-45
2022/05/28 01:01:59;;;;;;;;;;;;;;;26.51;30.54;100433.88;5076564;28;829;-44
2022/05/28 01:04:31;;;;;;;;;;;;;;;25.83;33.46;100426.63;5058767;28;912;-45
2022/05/28 01:06:56;;;;;;;;;;;;;;;26.28;32.21;100429.38;5052808;28;864;-45
2022/05/28 01:09:24;;;;;;;;;;;;;;;26.79;31.31;100425.13;5076730;28;834;-45
2022/05/28 01:11:52;;;;;;;;;;;;;;;26.77;31.42;100422.63;5058914;28;1898;-46
2022/05/28 01:14:36;;;;;;;;;;;;;;;27.37;30.18;100413.53;5076926;28;766;-47
2022/05/28 01:17:05;;;;;;;;;;;;;;;27.22;31.06;100410.03;5076520;28;785;-48
2022/05/28 01:19:36;;;;;;;;;;;;;;;27.02;31.08;100416.06;5076948;28;853;-47
2022/05/28 01:22:04;;;;;;;;;;;;;;;25.85;34.06;100414.66;5076484;28;821;-49
2022/05/28 01:24:32;;;;;;;;;;;;;;;26.20;32.14;100407.91;5058150;28;1523;-49
2022/05/28 01:26:58;;;;;;;;;;;;;;;26.48;31.46;100401.88;5076874;28;1285;-46
2022/05/28 01:29:24;;;;;;;;;;;;;;;26.90;30.98;100403.03;5058875;28;758;-49
2022/05/28 01:31:50;;;;;;;;;;;;;;;27.17;30.89;100404.38;5057640;28;1902;-46
2022/05/28 01:34:15;;;;;;;;;;;;;;;26.87;31.18;100413.38;5076878;28;847;-46
2022/05/28 01:36:40;;;;;;;;;;;;;;;27.31;30.54;100403.47;5058601;28;794;-47
2022/05/28 01:39:06;;;;;;;;;;;;;;;26.67;30.00;100408.59;5058099;28;920;-47
2022/05/28 01:41:32;;;;;;;;;;;;;;;25.59;33.44;100406.94;5076646;28;841;-47
2022/05/28 01:43:57;;;;;;;;;;;;;;;26.24;32.28;100401.13;5058295;28;766;-50
2022/05/28 01:46:23;;;;;;;;;;;;;;;26.58;31.47;100407.00;5056992;28;865;-48
2022/05/28 01:48:49;;;;;;;;;;;;;;;26.77;31.50;100413.69;5057620;28;870;-47
2022/05/28 01:51:14;;;;;;;;;;;;;;;27.17;30.65;100418.72;5076667;28;1970;-50
2022/05/28 01:56:24;;;;;;;;;;;;;;;26.89;30.91;100414.03;5076048;28;723;-48
2022/05/28 01:58:49;;;;;;;;;;;;;;;25.89;34.22;100407.06;5076352;28;816;-49
2022/05/28 02:01:14;;;;;;;;;;;;;;;26.04;32.25;100412.47;5075535;28;842;-48
2022/05/28 02:03:43;;;;;;;;;;;;;;;26.31;31.86;100415.53;5057904;28;1098;-47
2022/05/28 02:06:08;;;;;;;;;;;;;;;26.98;30.91;100412.88;5075954;28;896;-46
2022/05/28 02:08:35;;;;;;;;;;;;;;;26.94;30.73;100418.84;5076033;28;802;-45
2022/05/28 02:11:10;;;;;;;;;;;;;;;27.01;31.22;100412.53;5057587;28;1894;-48
2022/05/28 02:13:41;;;;;;;;;;;;;;;27.28;30.52;100414.66;5057468;28;1117;-47
2022/05/28 02:16:09;;;;;;;;;;;;;;;27.00;31.47;100410.84;5057369;28;847;-47
2022/05/28 02:18:44;;;;;;;;;;;;;;;25.72;34.00;100411.75;5058021;28;786;-46
2022/05/28 02:21:10;;;;;;;;;;;;;;;26.28;31.90;100403.28;5058375;28;860;-47
2022/05/28 02:23:38;;;;;;;;;;;;;;;26.68;31.90;100410.25;5057938;28;886;-46
2022/05/28 02:26:08;;;;;;;;;;;;;;;26.86;31.90;100412.53;5054030;28;1175;-46
2022/05/28 02:28:33;;;;;;;;;;;;;;;27.24;30.75;100403.41;5051921;28;786;-49
2022/05/28 02:31:04;;;;;;;;;;;;;;;27.19;31.24;100411.28;5053895;28;1090;-46
2022/05/28 02:33:30;;;;;;;;;;;;;;;27.29;30.80;100410.97;5055900;28;777;-47
2022/05/28 02:35:56;;;;;;;;;;;;;;;27.24;30.93;100408.81;5055632;28;929;-46
2022/05/28 02:38:21;;;;;;;;;;;;;;;27.02;31.59;100411.53;5055572;28;781;-49
2022/05/28 02:40:46;;;;;;;;;;;;;;;25.83;34.38;100405.06;5055160;28;940;-50
2022/05/28 02:43:11;;;;;;;;;;;;;;;26.24;33.06;100404.66;5055837;28;745;-48
2022/05/28 02:45:37;;;;;;;;;;;;;;;26.41;32.40;100401.78;5055128;28;952;-46
2022/05/28 02:48:03;;;;;;;;;;;;;;;26.99;32.02;100403.75;5055788;28;861;-50
2022/05/28 02:50:28;;;;;;;;;;;;;;;27.18;31.37;100404.19;5055569;28;830;-46
2022/05/28 02:52:53;;;;;;;;;;;;;;;26.97;31.56;100410.38;5054559;28;1886;-48
2022/05/28 02:55:19;;;;;;;;;;;;;;;27.29;31.22;100405.56;5055813;28;809;-47
2022/05/28 02:57:44;;;;;;;;;;;;;;;26.84;29.98;100403.78;5057165;28;1412;-47
2022/05/28 03:00:10;;;;;;;;;;;;;;;25.76;33.99;100397.72;5059195;28;843;-48
2022/05/28 03:02:35;;;;;;;;;;;;;;;26.34;32.73;100393.63;5059320;28;914;-46
2022/05/28 03:05:00;;;;;;;;;;;;;;;26.83;31.73;100395.88;5052764;28;813;-46
2022/05/28 03:07:26;;;;;;;;;;;;;;;26.69;32.09;100400.28;5058637;28;788;-48
2022/05/28 03:09:51;;;;;;;;;;;;;;;27.12;31.62;100403.09;5059632;28;754;-49
2022/05/28 03:12:16;;;;;;;;;;;;;;;27.16;31.61;100408.94;5059848;28;1901;-47
2022/05/28 03:14:42;;;;;;;;;;;;;;;27.26;31.26;100414.88;5059082;28;811;-47
2022/05/28 03:17:07;;;;;;;;;;;;;;;26.07;33.38;100425.56;5058767;28;819;-46
2022/05/28 03:19:32;;;;;;;;;;;;;;;26.05;33.61;100424.91;5059131;28;869;-47
2022/05/28 03:21:58;;;;;;;;;;;;;;;26.43;33.13;100426.72;5058981;28;774;-46
2022/05/28 03:24:23;;;;;;;;;;;;;;;27.07;32.34;100423.59;5059360;28;882;-50
2022/05/28 03:26:48;;;;;;;;;;;;;;;26.98;33.08;100420.13;5069422;28;1037;-49
2022/05/28 03:29:13;;;;;;;;;;;;;;;27.53;32.89;100416.97;5079009;28;762;-51
2022/05/28 03:31:39;;;;;;;;;;;;;;;26.26;35.00;100424.19;5075566;28;1918;-48
2022/05/28 03:34:04;;;;;;;;;;;;;;;25.98;36.78;100416.72;5079195;28;765;-51
2022/05/28 03:36:30;;;;;;;;;;;;;;;26.29;35.98;100423.00;5079288;28;1096;-47
2022/05/28 03:38:56;;;;;;;;;;;;;;;26.79;34.34;100422.44;5079909;28;876;-47
2022/05/28 03:41:21;;;;;;;;;;;;;;;26.75;34.35;100416.56;5079056;28;1547;-47
2022/05/28 03:43:47;;;;;;;;;;;;;;;27.05;34.62;100415.69;5078801;28;798;-46
2022/05/28 03:46:19;;;;;;;;;;;;;;;26.72;39.21;100403.47;5078665;28;977;-44
2022/05/28 03:48:44;;;;;;;;;;;;;;;26.36;40.01;100401.53;5079172;28;765;-41
2022/05/28 03:51:10;;;;;;;;;;;;;;;26.16;42.19;100399.34;5060790;28;1902;-41
2022/05/28 03:53:35;;;;;;;;;;;;;;;26.06;42.78;100407.72;5078766;28;916;-40
2022/05/28 03:56:00;;;;;;;;;;;;;;;26.18;42.38;100405.41;5078608;28;1404;-41
2022/05/28 03:58:25;;;;;;;;;;;;;;;25.89;43.23;100407.88;5078766;28;739;-43
2022/05/28 04:00:51;;;;;;;;;;;;;;;26.06;42.36;100407.72;5077604;28;892;-46
2022/05/28 04:03:16;;;;;;;;;;;;;;;25.87;43.04;100407.22;5078148;28;754;-45
2022/05/28 04:05:41;;;;;;;;;;;;;;;24.97;45.65;100405.00;5077579;28;810;-45
2022/05/28 04:08:07;;;;;;;;;;;;;;;25.16;45.10;100398.31;5077801;28;868;-42
2022/05/28 04:10:32;;;;;;;;;;;;;;;25.71;43.50;100410.09;5077847;28;757;-46
2022/05/28 04:12:57;;;;;;;;;;;;;;;26.28;42.27;100416.75;5078884;28;1905;-48
2022/05/28 04:15:24;;;;;;;;;;;;;;;26.55;41.67;100419.00;5078491;28;871;-51
2022/05/28 04:17:49;;;;;;;;;;;;;;;26.21;39.65;100412.28;5078385;28;866;-48
2022/05/28 04:20:15;;;;;;;;;;;;;;;26.00;41.88;100417.38;5078615;28;805;-46
2022/05/28 04:22:40;;;;;;;;;;;;;;;26.28;41.91;100422.16;5078275;28;837;-46
2022/05/28 04:25:06;;;;;;;;;;;;;;;26.50;40.19;100429.50;5078451;28;786;-44
2022/05/28 04:27:31;;;;;;;;;;;;;;;26.60;40.70;100430.06;5077466;28;1183;-43
2022/05/28 04:29:58;;;;;;;;;;;;;;;26.71;40.62;100431.44;5078022;28;900;-44
2022/05/28 04:32:23;;;;;;;;;;;;;;;26.70;40.89;100440.56;5077414;28;1974;-44
2022/05/28 04:34:49;;;;;;;;;;;;;;;26.62;40.85;100438.81;5077747;28;813;-43
2022/05/28 04:37:14;;;;;;;;;;;;;;;26.61;40.73;100444.41;5077985;28;787;-43
2022/05/28 04:39:39;;;;;;;;;;;;;;;26.71;40.75;100441.41;5077821;28;865;-41
2022/05/28 04:42:05;;;;;;;;;;;;;;;26.72;40.41;100445.78;5077659;28;895;-42
2022/05/28 04:44:30;;;;;;;;;;;;;;;26.69;40.16;100452.41;5077799;28;762;-42
2022/05/28 04:46:55;;;;;;;;;;;;;;;26.67;40.56;100445.50;5077636;28;1014;-42
2022/05/28 04:49:21;;;;;;;;;;;;;;;26.71;40.82;100454.91;5077677;28;818;-43
2022/05/28 04:51:46;;;;;;;;;;;;;;;26.72;39.99;100454.72;5077719;28;1963;-42
2022/05/28 04:54:11;;;;;;;;;;;;;;;26.78;40.44;100459.38;5077890;28;793;-43
2022/05/28 04:56:36;;;;;;;;;;;;;;;26.88;40.72;100464.47;5078225;28;805;-41
2022/05/28 04:59:02;;;;;;;;;;;;;;;26.80;39.33;100469.97;5077053;28;849;-43
2022/05/28 05:01:27;;;;;;;;;;;;;;;26.88;40.02;100469.88;5077193;28;866;-42
2022/05/28 05:03:52;;;;;;;;;;;;;;;26.99;40.51;100468.53;5077829;28;750;-42
2022/05/28 05:06:18;;;;;;;;;;;;;;;26.95;40.27;100469.94;5077271;28;930;-42
2022/05/28 05:08:43;;;;;;;;;;;;;;;26.92;39.95;100473.03;5077787;28;834;-44
2022/05/28 05:11:08;;;;;;;;;;;;;;;26.96;40.52;100468.91;5077556;28;1901;-42
2022/05/28 05:13:34;;;;;;;;;;;;;;;26.97;40.39;100464.34;5076727;28;827;-43
2022/05/28 05:15:59;;;;;;;;;;;;;;;27.03;40.30;100463.63;5077136;28;812;-42
2022/05/28 05:18:24;;;;;;;;;;;;;;;27.06;40.58;100457.84;5077444;28;868;-43
2022/05/28 05:20:50;;;;;;;;;;;;;;;27.08;40.93;100472.00;5075949;28;799;-43
2022/05/28 05:23:17;;;;;;;;;;;;;;;27.16;40.37;100462.94;5077506;28;738;-43
2022/05/28 05:25:42;;;;;;;;;;;;;;;27.24;40.66;100472.81;5076794;28;1028;-43
2022/05/28 05:28:08;;;;;;;;;;;;;;;27.21;40.42;100471.31;5077175;28;908;-44
2022/05/28 05:30:33;;;;;;;;;;;;;;;27.23;40.51;100468.41;5076997;28;966;-44
2022/05/28 05:32:58;;;;;;;;;;;;;;;27.26;40.28;100454.53;5077089;28;1968;-44
2022/05/28 05:35:24;;;;;;;;;;;;;;;27.26;40.25;100462.63;5076790;28;828;-45
2022/05/28 05:37:49;;;;;;;;;;;;;;;27.29;40.32;100458.72;5076257;28;860;-43
2022/05/28 05:40:14;;;;;;;;;;;;;;;27.31;40.09;100460.19;5076846;28;855;-42
2022/05/28 05:42:40;;;;;;;;;;;;;;;27.24;39.76;100454.72;5076681;28;789;-42
2022/05/28 05:45:05;;;;;;;;;;;;;;;27.20;39.21;100464.25;5076829;28;737;-42
2022/05/28 05:47:31;;;;;;;;;;;;;;;27.26;39.42;100457.22;5071179;28;821;-42
2022/05/28 05:49:56;;;;;;;;;;;;;;;27.24;38.86;100470.09;5075840;28;836;-42
2022/05/28 05:52:21;;;;;;;;;;;;;;;27.26;40.63;100465.31;5077041;28;1902;-43
2022/05/28 05:54:47;;;;;;;;;;;;;;;27.27;39.47;100467.03;5070632;28;770;-41
2022/05/28 05:57:12;;;;;;;;;;;;;;;27.34;40.55;100464.41;5076117;28;872;-44
2022/05/28 05:59:37;;;;;;;;;;;;;;;27.29;40.28;100456.88;5075977;28;1035;-42
2022/05/28 06:02:03;;;;;;;;;;;;;;;27.22;40.89;100466.75;5076585;28;952;-43
2022/05/28 06:04:28;;;;;;;;;;;;;;;27.37;40.05;100455.91;5074739;28;1052;-42
2022/05/28 06:06:53;;;;;;;;;;;;;;;27.45;40.59;100449.53;5074289;28;900;-42
2022/05/28 06:09:19;;;;;;;;;;;;;;;27.36;40.77;100440.75;5072744;28;812;-42
2022/05/28 06:11:44;;;;;;;;;;;;;;;27.41;40.37;100424.75;5074977;28;1898;-42
2022/05/28 06:14:09;;;;;;;;;;;;;;;27.49;40.54;100423.81;5073305;28;854;-42
2022/05/28 06:16:35;;;;;;;;;;;;;;;27.36;41.26;100414.53;5074794;28;824;-42
2022/05/28 06:19:01;;;;;;;;;;;;;;;27.40;40.61;100409.59;5069531;28;766;-43
2022/05/28 06:21:26;;;;;;;;;;;;;;;27.42;40.73;100409.41;5071165;28;749;-41
2022/05/28 06:23:51;;;;;;;;;;;;;;;27.47;40.43;100415.91;5070982;28;1005;-43
2022/05/28 06:26:17;;;;;;;;;;;;;;;27.43;40.13;100408.38;5073095;28;1245;-43
2022/05/28 06:28:42;;;;;;;;;;;;;;;27.36;40.69;100406.44;5075630;28;873;-43
2022/05/28 06:31:08;;;;;;;;;;;;;;;27.43;40.33;100405.66;5075317;28;932;-45
2022/05/28 06:33:34;;;;;;;;;;;;;;;27.42;40.68;100398.59;5075166;28;1979;-44
2022/05/28 06:35:59;;;;;;;;;;;;;;;27.40;40.64;100404.19;5076204;28;750;-44
2022/05/28 06:38:25;;;;;;;;;;;;;;;27.47;40.73;100399.69;5075537;28;857;-43
2022/05/28 06:40:50;;;;;;;;;;;;;;;27.46;40.44;100403.41;5073523;28;773;-42
2022/05/28 06:43:16;;;;;;;;;;;;;;;27.57;40.92;100398.53;5075966;28;722;-44
2022/05/28 06:45:41;;;;;;;;;;;;;;;27.60;40.53;100392.72;5075652;28;946;-43
2022/05/28 06:48:06;;;;;;;;;;;;;;;27.59;40.38;100382.97;5075406;28;901;-46
2022/05/28 06:53:15;;;;;;;;;;;;;;;27.62;40.23;100386.13;5075259;28;1897;-44
2022/05/28 06:55:41;;;;;;;;;;;;;;;27.72;39.87;100384.97;5074297;28;886;-44
2022/05/28 06:58:06;;;;;;;;;;;;;;;27.69;39.49;100380.78;5075407;28;794;-43
2022/05/28 07:00:31;;;;;;;;;;;;;;;27.79;38.84;100380.44;5070779;28;1127;-46
2022/05/28 07:02:57;;;;;;;;;;;;;;;27.70;37.53;100379.75;5075347;28;778;-43
2022/05/28 07:05:22;;;;;;;;;;;;;;;27.80;37.20;100376.72;5075540;28;856;-45
2022/05/28 07:07:47;;;;;;;;;;;;;;;27.84;38.16;100374.44;5073180;28;1247;-43
2022/05/28 07:10:13;;;;;;;;;;;;;;;27.75;35.28;100374.59;5070193;28;1165;-43
2022/05/28 07:12:38;;;;;;;;;;;;;;;27.86;36.64;100375.09;5073907;28;1905;-45
2022/05/28 07:15:04;;;;;;;;;;;;;;;27.91;37.34;100377.19;5074667;28;886;-44
2022/05/28 07:17:29;;;;;;;;;;;;;;;27.96;37.67;100378.25;5073746;28;777;-44
2022/05/28 07:19:54;;;;;;;;;;;;;;;27.97;38.04;100379.94;5074267;28;853;-43
2022/05/28 07:22:19;;;;;;;;;;;;;;;27.95;37.85;100381.16;5074935;28;797;-43
2022/05/28 07:24:45;;;;;;;;;;;;;;;27.99;37.76;100383.25;5074708;28;765;-43
2022/05/28 07:27:11;;;;;;;;;;;;;;;28.03;37.68;100389.13;5074394;28;1315;-43
2022/05/28 07:29:37;;;;;;;;;;;;;;;28.03;37.20;100382.91;5057045;28;1561;-42
2022/05/28 07:32:02;;;;;;;;;;;;;;;27.99;37.63;100375.16;5073818;28;1972;-42
2022/05/28 07:34:28;;;;;;;;;;;;;;;27.99;37.69;100372.44;5074752;28;778;-42
2022/05/28 07:36:53;;;;;;;;;;;;;;;28.06;37.20;100361.69;5075103;28;737;-43
2022/05/28 07:39:18;;;;;;;;;;;;;;;28.08;36.94;100365.03;5074158;28;849;-42
2022/05/28 07:41:43;;;;;;;;;;;;;;;28.13;37.13;100367.13;5074225;28;850;-43
2022/05/28 07:44:09;;;;;;;;;;;;;;;28.09;37.11;100361.28;5075714;28;746;-44
2022/05/28 07:46:34;;;;;;;;;;;;;;;28.25;36.98;100370.13;5077800;28;928;-48
2022/05/28 07:49:00;;;;;;;;;;;;;;;28.27;37.10;100365.34;5078205;28;757;-44
2022/05/28 07:51:25;;;;;;;;;;;;;;;28.24;37.12;100366.56;5077840;28;1898;-46
2022/05/28 07:53:51;;;;;;;;;;;;;;;28.25;36.82;100364.69;5077893;28;875;-46
2022/05/28 07:56:16;;;;;;;;;;;;;;;28.30;36.57;100361.38;5077857;28;858;-48
2022/05/28 07:58:41;;;;;;;;;;;;;;;28.38;36.73;100365.84;5078465;28;913;-48
2022/05/28 08:01:07;;;;;;;;;;;;;;;28.24;37.06;100352.22;5072138;28;864;-46
2022/05/28 08:03:32;;;;;;;;;;;;;;;28.31;36.98;100355.78;5070605;28;829;-47
2022/05/28 08:05:58;;;;;;;;;;;;;;;28.32;36.52;100346.66;5078432;28;993;-47
2022/05/28 08:08:23;;;;;;;;;;;;;;;28.35;36.65;100346.28;5078117;28;810;-44
2022/05/28 08:10:49;;;;;;;;;;;;;;;28.36;36.35;100339.81;5077004;28;850;-46
2022/05/28 08:13:16;;;;;;;;;;;;;;;28.42;36.71;100340.88;5078341;28;1902;-46
2022/05/28 08:15:42;;;;;;;;;;;;;;;28.40;36.08;100345.66;5078032;28;879;-48
2022/05/28 08:18:08;;;;;;;;;;;;;;;28.46;36.28;100342.13;5077511;28;810;-47
2022/05/28 08:23:18;;;;;;;;;;;;;;;28.47;36.01;100349.25;5070740;28;813;-47
2022/05/28 08:25:44;;;;;;;;;;;;;;;28.47;36.09;100343.81;5076922;28;1014;-46
2022/05/28 08:28:10;;;;;;;;;;;;;;;28.58;36.04;100346.97;5059268;28;889;-44
2022/05/28 08:30:35;;;;;;;;;;;;;;;28.51;36.02;100346.94;5076896;28;877;-46
2022/05/28 08:33:00;;;;;;;;;;;;;;;28.55;35.93;100341.97;5077110;28;1907;-45
2022/05/28 08:35:26;;;;;;;;;;;;;;;28.53;35.79;100346.78;5077300;28;942;-46
2022/05/28 08:37:51;;;;;;;;;;;;;;;28.47;36.12;100346.53;5076772;28;833;-47
2022/05/28 08:40:16;;;;;;;;;;;;;;;28.40;35.88;100342.13;5077008;28;748;-48
2022/05/28 08:42:42;;;;;;;;;;;;;;;28.40;35.96;100342.97;5058601;28;1134;-48
2022/05/28 08:45:07;;;;;;;;;;;;;;;28.44;35.90;100343.41;5076941;28;879;-47
2022/05/28 08:47:34;;;;;;;;;;;;;;;28.39;36.07;100343.16;5058847;28;838;-49
2022/05/28 08:49:59;;;;;;;;;;;;;;;28.46;35.62;100344.03;5058625;28;1336;-47
2022/05/28 08:52:32;;;;;;;;;;;;;;;28.48;36.02;100350.91;5076656;28;1906;-46
2022/05/28 08:55:08;;;;;;;;;;;;;;;28.47;35.49;100346.53;5058784;28;794;-48
2022/05/28 08:57:40;;;;;;;;;;;;;;;28.43;35.50;100347.13;5058423;28;1095;-48
2022/05/28 09:00:13;;;;;;;;;;;;;;;28.47;35.46;100343.81;5076950;28;793;-46
2022/05/28 09:02:39;;;;;;;;;;;;;;;28.48;35.31;100342.78;5054181;28;882;-51
2022/05/28 09:05:25;;;;;;;;;;;;;;;28.52;34.99;100348.63;5058085;28;1106;-47
2022/05/28 09:07:51;;;;;;;;;;;;;;;28.54;34.81;100340.31;5071897;28;1407;-50
2022/05/28 09:10:16;;;;;;;;;;;;;;;28.55;35.15;100337.41;5057689;28;897;-46
2022/05/28 09:12:43;;;;;;;;;;;;;;;28.58;35.24;100334.28;5075826;28;1902;-49
2022/05/28 09:15:08;;;;;;;;;;;;;;;28.60;35.37;100334.91;5057394;28;908;-45
2022/05/28 09:17:34;;;;;;;;;;;;;;;28.76;35.45;100329.34;5076099;28;857;-48
2022/05/28 09:20:00;;;;;;;;;;;;;;;28.84;34.58;100337.28;5076747;28;729;-47
2022/05/28 09:22:26;;;;;;;;;;;;;;;28.85;35.11;100334.34;5076096;28;861;-46
2022/05/28 09:24:51;;;;;;;;;;;;;;;28.85;35.05;100337.06;5076207;28;734;-46
2022/05/28 09:27:19;;;;;;;;;;;;;;;28.88;35.11;100319.56;5075361;28;1176;-44
2022/05/28 09:29:45;;;;;;;;;;;;;;;28.94;34.97;100326.88;5076882;28;874;-47
2022/05/28 09:32:18;;;;;;;;;;;;;;;28.99;35.11;100323.59;5075861;28;1905;-45
2022/05/28 09:35:02;;;;;;;;;;;;;;;28.96;35.29;100332.91;5057977;28;846;-45
2022/05/28 09:37:46;;;;;;;;;;;;;;;28.92;34.81;100331.66;5076668;28;734;-46
2022/05/28 09:40:30;;;;;;;;;;;;;;;28.85;35.29;100323.53;5075508;28;956;-47
2022/05/28 09:43:04;;;;;;;;;;;;;;;28.74;35.15;100324.13;5070343;28;1079;-48
2022/05/28 09:45:30;;;;;;;;;;;;;;;28.71;35.31;100327.25;5073975;28;821;-47
2022/05/28 09:47:55;;;;;;;;;;;;;;;28.74;35.03;100332.25;5071017;28;722;-46
2022/05/28 09:50:27;;;;;;;;;;;;;;;28.68;32.96;100333.88;5075571;28;801;-46
2022/05/28 09:55:40;;;;;;;;;;;;;;;28.66;33.13;100335.97;5075614;28;681;-45
2022/05/28 09:58:06;;;;;;;;;;;;;;;28.89;33.45;100331.25;5075735;28;714;-45
2022/05/28 10:00:31;;;;;;;;;;;;;;;28.83;32.19;100341.00;5074967;28;813;-45
2022/05/28 10:05:50;;;;;;;;;;;;;;;28.67;34.73;100336.81;5075320;28;781;-48
2022/05/28 10:08:16;;;;;;;;;;;;;;;28.66;34.63;100335.16;5056513;28;1520;-47
2022/05/28 10:10:41;;;;;;;;;;;;;;;28.70;34.59;100336.38;5075382;28;1404;-46
2022/05/28 10:13:13;;;;;;;;;;;;;;;28.72;34.82;100337.03;5074858;28;1898;-47
2022/05/28 10:15:39;;;;;;;;;;;;;;;28.74;34.52;100332.25;5074752;28;845;-46
2022/05/28 10:18:08;;;;;;;;;;;;;;;28.76;34.61;100335.56;5074961;28;893;-46
2022/05/28 10:20:33;;;;;;;;;;;;;;;28.82;34.59;100334.78;5069079;28;877;-48
2022/05/28 10:23:01;;;;;;;;;;;;;;;28.87;34.72;100327.91;5057760;28;778;-46
2022/05/28 10:25:41;;;;;;;;;;;;;;;28.86;34.90;100318.97;5068589;28;865;-47
2022/05/28 10:28:07;;;;;;;;;;;;;;;27.89;34.36;100319.78;5075849;28;754;-44
2022/05/28 10:30:32;;;;;;;;;;;;;;;25.64;39.14;100313.00;5056470;28;865;-44
2022/05/28 10:32:58;;;;;;;;;;;;;;;24.89;43.73;100311.69;5075324;28;1902;-43
2022/05/28 10:35:27;;;;;;;;;;;;;;;26.45;39.39;100316.81;5056599;28;866;-44
2022/05/28 10:37:53;;;;;;;;;;;;;;;25.80;40.03;100320.06;5075532;28;874;-45
2022/05/28 10:40:22;;;;;;;;;;;;;;;25.03;45.18;100311.94;5075139;28;865;-45
2022/05/28 10:42:48;;;;;;;;;;;;;;;26.61;39.14;100314.91;5075511;28;734;-44
2022/05/28 10:45:18;;;;;;;;;;;;;;;26.46;38.90;100307.69;5074736;28;824;-45
2022/05/28 10:48:01;;;;;;;;;;;;;;;25.58;42.49;100308.28;5075784;28;810;-46
2022/05/28 10:50:35;;;;;;;;;;;;;;;26.61;37.97;100301.44;5075286;28;1044;-45
2022/05/28 10:53:14;;;;;;;;;;;;;;;25.25;44.57;100304.91;5074963;28;1897;-44
2022/05/28 10:55:39;;;;;;;;;;;;;;;26.62;39.52;100303.09;5075217;28;926;-44
2022/05/28 10:58:04;;;;;;;;;;;;;;;25.04;41.59;100298.31;5075834;28;762;-45
2022/05/28 11:00:32;;;;;;;;;;;;;;;25.85;41.48;100296.09;5074658;28;946;-44
2022/05/28 11:03:06;;;;;;;;;;;;;;;26.17;39.21;100296.72;5075230;28;789;-45
2022/05/28 11:05:31;;;;;;;;;;;;;;;25.36;43.10;100287.44;5074760;28;817;-45
2022/05/28 11:08:20;;;;;;;;;;;;;;;26.64;39.40;100291.06;5074505;28;1425;-45
2022/05/28 11:10:57;;;;;;;;;;;;;;;25.32;44.53;100288.84;5028089;28;1053;-45
2022/05/28 11:13:28;;;;;;;;;;;;;;;26.58;38.94;100286.44;5056457;28;1960;-45
2022/05/28 11:15:56;;;;;;;;;;;;;;;25.10;43.29;100285.16;5073973;28;871;-45
2022/05/28 11:18:31;;;;;;;;;;;;;;;26.17;40.22;100290.50;5076076;28;833;-45
2022/05/28 11:21:14;;;;;;;;;;;;;;;25.29;40.87;100284.66;5078451;28;794;-45
2022/05/28 11:23:39;;;;;;;;;;;;;;;26.24;39.57;100282.50;5072214;28;738;-49
2022/05/28 11:26:23;;;;;;;;;;;;;;;27.11;38.37;100279.13;5078152;28;1200;-45
2022/05/28 11:29:02;;;;;;;;;;;;;;;27.55;37.41;100281.72;5073832;28;821;-43
2022/05/28 11:31:38;;;;;;;;;;;;;;;27.77;37.24;100271.69;5078501;28;1910;-44
2022/05/28 11:34:09;;;;;;;;;;;;;;;28.03;36.81;100278.28;5077752;28;817;-43
2022/05/28 11:36:39;;;;;;;;;;;;;;;28.13;36.26;100271.66;5060212;28;850;-44
2022/05/28 11:39:04;;;;;;;;;;;;;;;28.26;36.22;100273.59;5061360;28;884;-48
2022/05/28 11:42:08;;;;;;;;;;;;;;;28.28;36.40;100274.22;5079403;28;853;-45
2022/05/28 11:44:39;;;;;;;;;;;;;;;28.34;36.21;100270.75;4975443;28;1074;-48
2022/05/28 11:47:16;;;;;;;;;;;;;;;28.48;35.93;100272.44;4978959;28;1009;-46
2022/05/28 11:52:30;;;;;;;;;;;;;;;28.42;36.34;100265.16;5072667;28;1972;-44
2022/05/28 11:54:57;;;;;;;;;;;;;;;28.56;36.03;100262.47;5078040;28;758;-45
2022/05/28 11:57:26;;;;;;;;;;;;;;;28.46;36.27;100266.38;5059208;28;1485;-45
2022/05/28 11:59:51;;;;;;;;;;;;;;;28.59;36.20;100271.00;5059876;28;1112;-46
2022/05/28 12:02:20;;;;;;;;;;;;;;;28.68;36.52;100265.38;5077381;28;1045;-45
2022/05/28 12:04:45;;;;;;;;;;;;;;;28.65;36.98;100274.75;5077830;28;849;-48
2022/05/28 12:07:12;;;;;;;;;;;;;;;28.57;36.73;100273.09;5060852;28;759;-47
2022/05/28 12:09:42;;;;;;;;;;;;;;;28.59;36.88;100272.88;5059414;28;1080;-48
2022/05/28 12:12:13;;;;;;;;;;;;;;;28.70;36.63;100276.84;5059879;28;1970;-46
2022/05/28 12:14:39;;;;;;;;;;;;;;;28.66;36.49;100272.91;5077844;28;852;-46
2022/05/28 12:17:11;;;;;;;;;;;;;;;28.72;36.34;100264.78;5077286;28;1010;-52
2022/05/28 12:19:50;;;;;;;;;;;;;;;28.72;36.18;100267.50;5074289;28;781;-47
2022/05/28 12:22:25;;;;;;;;;;;;;;;28.69;35.90;100259.81;5074129;28;864;-50
2022/05/28 12:25:19;;;;;;;;;;;;;;;28.76;35.76;100257.06;5074872;28;802;-48
2022/05/28 12:27:54;;;;;;;;;;;;;;;28.77;36.10;100249.78;5057984;28;1384;-50
2022/05/28 12:30:46;;;;;;;;;;;;;;;28.81;36.02;100246.47;5076200;28;833;-48
2022/05/28 12:33:20;;;;;;;;;;;;;;;28.81;35.97;100251.88;5077173;28;1979;-46
2022/05/28 12:36:15;;;;;;;;;;;;;;;28.85;36.06;100252.31;5076898;28;923;-47
2022/05/28 12:38:41;;;;;;;;;;;;;;;28.89;36.41;100250.88;5054478;28;1127;-44
2022/05/28 12:41:14;;;;;;;;;;;;;;;29.00;36.53;100243.16;5077289;28;746;-46
2022/05/28 12:43:43;;;;;;;;;;;;;;;29.03;36.64;100234.66;5058581;28;870;-46
2022/05/28 12:46:13;;;;;;;;;;;;;;;29.07;36.63;100236.72;5059538;28;821;-46
2022/05/28 12:48:39;;;;;;;;;;;;;;;29.09;36.67;100233.81;5059019;28;1147;-49
2022/05/28 12:51:24;;;;;;;;;;;;;;;28.99;36.90;100227.97;5083764;28;765;-44
2022/05/28 12:53:52;;;;;;;;;;;;;;;29.05;36.99;100229.84;5077479;28;1906;-46
2022/05/28 12:56:40;;;;;;;;;;;;;;;29.07;37.13;100222.34;5077366;28;757;-44
2022/05/28 12:59:07;;;;;;;;;;;;;;;29.06;37.25;100226.09;5042377;28;1183;-44
2022/05/28 13:01:32;;;;;;;;;;;;;;;29.15;37.16;100226.72;5076597;28;829;-46
2022/05/28 13:03:57;;;;;;;;;;;;;;;29.15;37.16;100232.97;5076080;28;1446;-48
2022/05/28 13:06:28;;;;;;;;;;;;;;;29.17;37.21;100235.47;5076363;28;985;-45
2022/05/28 13:09:03;;;;;;;;;;;;;;;29.22;36.90;100230.25;5076889;28;828;-46
2022/05/28 13:11:36;;;;;;;;;;;;;;;29.24;37.19;100221.91;5076125;28;1961;-44
2022/05/28 13:14:20;;;;;;;;;;;;;;;29.21;37.30;100223.19;5058365;28;884;-45